Time;durP1;ratioP1;P1;durP2;ratioP2;P2;SDS_P1;SDS_P2;PMS_P1;PMS_P2;Temp;Humidity;BMP_temperature;BMP_pressure;BME280_temperature;BME280_humidity;BME280_pressure;Samples;Min_cycle;Max_cycle;Signal;HPM_P1;HPM_P2
2023/03/24 00:00:19;;;;;;;5.90;4.27;;;;;;;10.44;100.00;95563.88;5082632;28;20459;-75
2023/03/24 00:02:47;;;;;;;5.20;4.43;;;;;;;10.33;100.00;95554.94;5088706;28;20485;-75
2023/03/24 00:05:19;;;;;;;5.23;4.70;;;;;;;10.34;100.00;95564.41;5089691;28;20432;-76
2023/03/24 00:07:47;;;;;;;5.00;4.50;;;;;;;10.44;100.00;95569.16;5077103;28;20600;-75
2023/03/24 00:10:21;;;;;;;4.73;4.07;;;;;;;10.42;100.00;95560.81;5086857;28;20448;-76
2023/03/24 00:12:49;;;;;;;5.50;4.10;;;;;;;10.28;100.00;95545.41;5070925;28;20960;-76
2023/03/24 00:15:18;;;;;;;4.33;3.93;;;;;;;10.13;100.00;95501.22;5079077;28;20435;-76
2023/03/24 00:17:49;;;;;;;4.53;4.03;;;;;;;10.54;100.00;95552.75;5107901;28;20606;-76
2023/03/24 00:20:19;;;;;;;5.30;3.97;;;;;;;10.54;100.00;95552.75;5081435;28;20443;-75
2023/03/24 00:22:49;;;;;;;4.77;4.37;;;;;;;10.52;100.00;95552.34;5071130;28;20443;-75
2023/03/24 00:25:18;;;;;;;4.07;3.67;;;;;;;10.50;100.00;95546.63;5089336;28;20407;-75
2023/03/24 00:27:47;;;;;;;5.27;4.13;;;;;;;10.31;100.00;95522.81;5094856;28;20434;-76
2023/03/24 00:30:16;;;;;;;4.70;4.07;;;;;;;10.43;100.00;95535.91;5082026;28;21023;-76
2023/03/24 00:32:45;;;;;;;5.03;4.07;;;;;;;9.82;100.00;95464.31;5064367;28;20438;-76
2023/03/24 00:35:15;;;;;;;5.50;3.60;;;;;;;10.24;100.00;95541.13;5094741;28;20426;-76
2023/03/24 00:37:43;;;;;;;6.77;4.20;;;;;;;9.99;100.00;95499.03;5089738;28;20516;-75
2023/03/24 00:40:16;;;;;;;3.53;3.30;;;;;;;10.11;100.00;95529.88;5083134;28;20512;-76
2023/03/24 00:42:46;;;;;;;5.20;4.47;;;;;;;10.03;100.00;95515.75;5078833;28;20460;-75
2023/03/24 00:45:19;;;;;;;5.10;4.70;;;;;;;9.77;100.00;95503.06;5067650;28;20466;-76
2023/03/24 00:47:48;;;;;;;4.60;4.20;;;;;;;9.83;100.00;95522.03;5079715;28;20465;-76
2023/03/24 00:50:19;;;;;;;9.57;4.57;;;;;;;9.58;100.00;95484.47;5067310;28;20455;-75
2023/03/24 00:52:47;;;;;;;4.73;4.20;;;;;;;9.63;100.00;95507.22;5089920;28;20768;-75
2023/03/24 00:55:15;;;;;;;3.60;3.30;;;;;;;9.56;100.00;95509.69;5086269;28;20486;-76
2023/03/24 00:57:48;;;;;;;4.20;3.80;;;;;;;9.45;100.00;95494.34;5068886;28;20509;-75
2023/03/24 01:00:23;;;;;;;4.40;4.00;;;;;;;9.21;100.00;95468.09;5087489;28;20440;-76
2023/03/24 01:02:54;;;;;;;5.80;4.57;;;;;;;9.56;100.00;95512.31;5081704;28;20462;-76
2023/03/24 01:05:24;;;;;;;4.90;4.40;;;;;;;9.69;100.00;95493.44;5070993;28;20436;-76
2023/03/24 01:07:51;;;;;;;4.70;4.30;;;;;;;9.51;100.00;95479.03;5084117;28;20450;-76
2023/03/24 01:10:20;;;;;;;4.50;4.10;;;;;;;9.65;100.00;95491.81;5077410;28;20455;-75
2023/03/24 01:12:47;;;;;;;4.80;4.30;;;;;;;9.48;100.00;95493.69;5068184;28;20457;-76
2023/03/24 01:15:18;;;;;;;5.07;4.30;;;;;;;9.28;100.00;95481.47;5062292;28;20432;-76
2023/03/24 01:17:47;;;;;;;4.30;3.90;;;;;;;9.35;100.00;95486.19;5082738;28;20590;-76
2023/03/24 01:20:15;;;;;;;4.10;3.70;;;;;;;9.13;100.00;95461.13;5089241;28;20522;-76
2023/03/24 01:22:43;;;;;;;5.83;3.90;;;;;;;9.19;100.00;95479.00;5086340;28;20439;-76
2023/03/24 01:25:15;;;;;;;4.30;3.90;;;;;;;8.97;100.00;95445.28;5088760;28;20435;-76
2023/03/24 01:27:43;;;;;;;4.50;3.90;;;;;;;9.23;100.00;95483.59;5087239;28;20416;-76
2023/03/24 01:30:13;;;;;;;7.83;4.50;;;;;;;9.15;100.00;95475.50;5075344;28;20840;-75
2023/03/24 01:32:41;;;;;;;5.90;5.30;;;;;;;8.97;100.00;95460.34;5087727;28;20662;-75
2023/03/24 01:35:07;;;;;;;4.63;3.93;;;;;;;8.99;100.00;95468.66;5081136;28;20424;-75
2023/03/24 01:37:34;;;;;;;5.63;4.63;;;;;;;8.83;100.00;95453.56;5061726;28;20468;-76
2023/03/24 01:40:06;;;;;;;5.67;5.07;;;;;;;8.83;100.00;95450.94;5076686;28;20467;-76
2023/03/24 01:42:32;;;;;;;4.57;4.17;;;;;;;9.02;100.00;95489.06;5071783;28;20516;-76
2023/03/24 01:45:20;;;;;;;5.60;4.90;;;;;;;9.16;100.00;95503.41;5058921;28;20519;-76
2023/03/24 01:47:48;;;;;;;4.70;4.40;;;;;;;9.24;100.00;95482.50;5077537;28;20434;-75
2023/03/24 01:50:14;;;;;;;4.90;4.43;;;;;;;9.23;100.00;95470.41;5082221;28;20467;-76
2023/03/24 01:52:41;;;;;;;4.43;4.03;;;;;;;9.08;100.00;95469.25;5088715;28;20479;-76
2023/03/24 01:55:17;;;;;;;5.93;5.33;;;;;;;8.98;100.00;95470.53;5068352;28;20435;-75
2023/03/24 01:57:49;;;;;;;5.67;5.10;;;;;;;8.85;100.00;95467.19;5062668;28;20435;-76
2023/03/24 02:00:19;;;;;;;5.43;4.93;;;;;;;8.95;100.00;95471.22;5086904;28;20542;-75
2023/03/24 02:03:14;;;;;;;5.93;4.60;;;;;;;8.73;100.00;95445.38;5074481;28;20439;-75
2023/03/24 02:05:50;;;;;;;6.33;4.80;;;;;;;9.06;100.00;95480.16;5066185;28;20853;-75
2023/03/24 02:08:29;;;;;;;5.70;5.20;;;;;;;9.02;100.00;95484.56;5087919;28;20484;-75
2023/03/24 02:10:57;;;;;;;5.97;4.73;;;;;;;8.88;100.00;95463.88;5084649;28;20884;-75
2023/03/24 02:13:31;;;;;;;6.03;4.43;;;;;;;9.02;100.00;95467.97;5072382;28;20447;-75
2023/03/24 02:16:20;;;;;;;5.87;5.37;;;;;;;9.00;100.00;95465.69;5058114;28;20530;-76
2023/03/24 02:19:25;;;;;;;6.43;5.70;;;;;;;9.15;100.00;95466.81;5067383;28;20464;-75
2023/03/24 02:22:33;;;;;;;8.20;4.60;;;;;;;9.15;100.00;95466.81;5064696;28;20431;-75
2023/03/24 02:25:15;;;;;;;5.77;4.77;;;;;;;9.44;100.00;95470.94;5030946;28;20437;-76
2023/03/24 02:28:09;;;;;;;5.80;4.10;;;;;;;9.46;100.00;95453.66;5026974;28;20445;-75
2023/03/24 02:31:00;;;;;;;5.03;4.63;;;;;;;9.66;100.00;95480.16;5048575;28;20461;-75
2023/03/24 02:34:05;;;;;;;5.63;5.13;;;;;;;9.55;100.00;95471.97;5068150;28;20455;-76
2023/03/24 02:36:51;;;;;;;5.70;4.30;;;;;;;9.55;100.00;95473.84;5064795;28;20850;-75
2023/03/24 02:39:45;;;;;;;4.70;4.33;;;;;;;9.48;100.00;95475.22;5061194;28;20471;-75
2023/03/24 02:42:28;;;;;;;5.53;5.00;;;;;;;9.51;100.00;95459.81;5063813;28;20440;-75
2023/03/24 02:45:10;;;;;;;5.33;4.83;;;;;;;9.35;100.00;95447.38;5064611;28;20451;-75
2023/03/24 02:47:55;;;;;;;6.03;5.53;;;;;;;9.27;100.00;95427.19;5081010;28;20872;-75
2023/03/24 02:50:34;;;;;;;8.77;6.70;;;;;;;9.21;100.00;95431.19;5068362;28;20486;-75
2023/03/24 02:53:03;;;;;;;7.93;6.43;;;;;;;9.23;100.00;95415.81;5068288;28;20912;-76
2023/03/24 02:56:06;;;;;;;6.30;5.70;;;;;;;9.21;100.00;95407.44;5073698;28;21008;-75
2023/03/24 02:58:50;;;;;;;10.13;7.47;;;;;;;9.18;100.00;95387.03;5078837;28;20619;-75
2023/03/24 03:01:30;;;;;;;9.93;7.50;;;;;;;9.18;100.00;95389.66;5073721;28;20455;-76
2023/03/24 03:04:17;;;;;;;6.43;5.73;;;;;;;9.05;100.00;95382.94;5079237;28;20435;-76
2023/03/24 03:06:53;;;;;;;8.93;5.50;;;;;;;9.06;100.00;95379.97;5059402;28;20439;-75
2023/03/24 03:09:22;;;;;;;6.73;6.03;;;;;;;9.00;100.00;95380.56;5066902;28;20522;-76
2023/03/24 03:11:55;;;;;;;7.20;6.30;;;;;;;8.75;100.00;95345.66;5057464;28;20976;-76
2023/03/24 03:14:33;;;;;;;6.13;5.57;;;;;;;8.70;100.00;95346.69;5103732;28;20430;-76
2023/03/24 03:17:06;;;;;;;6.73;6.03;;;;;;;8.60;100.00;95334.00;5076808;28;20427;-76
2023/03/24 03:19:42;;;;;;;6.80;6.10;;;;;;;8.62;100.00;95349.47;5062768;28;20508;-76
2023/03/24 03:22:17;;;;;;;7.10;6.20;;;;;;;8.68;100.00;95356.81;5085021;28;20435;-76
2023/03/24 03:24:49;;;;;;;6.70;6.10;;;;;;;8.61;100.00;95338.16;5086818;28;20423;-76
2023/03/24 03:27:21;;;;;;;6.23;5.63;;;;;;;8.57;100.00;95313.59;5073735;28;20431;-76
2023/03/24 03:29:53;;;;;;;6.63;5.93;;;;;;;8.63;100.00;95335.94;5086614;28;20466;-75
2023/03/24 03:32:27;;;;;;;6.83;6.13;;;;;;;8.69;100.00;95339.13;5065034;28;20459;-75
2023/03/24 03:35:08;;;;;;;5.53;5.10;;;;;;;8.75;100.00;95332.50;5070586;28;20522;-76
2023/03/24 03:38:03;;;;;;;6.93;5.77;;;;;;;8.89;100.00;95346.03;5085597;28;20441;-76
2023/03/24 03:40:36;;;;;;;14.67;8.80;;;;;;;8.94;100.00;95340.47;5082876;28;20455;-76
2023/03/24 03:43:11;;;;;;;11.37;9.50;;;;;;;8.77;100.00;95315.22;5063215;28;20435;-75
2023/03/24 03:45:38;;;;;;;10.53;8.20;;;;;;;8.87;100.00;95317.38;5070310;28;20431;-75
2023/03/24 03:48:06;;;;;;;14.53;8.63;;;;;;;8.77;100.00;95307.31;5064685;28;20502;-76
2023/03/24 03:50:33;;;;;;;11.67;9.53;;;;;;;8.78;100.00;95295.69;5070537;28;20948;-76
2023/03/24 03:53:06;;;;;;;7.70;6.83;;;;;;;8.89;100.00;95319.66;5093476;28;20509;-76
2023/03/24 03:55:34;;;;;;;9.93;6.90;;;;;;;8.96;100.00;95329.63;5076902;28;20971;-76
2023/03/24 03:58:03;;;;;;;6.63;6.03;;;;;;;8.91;100.00;95314.06;5063553;28;21028;-76
2023/03/24 04:00:38;;;;;;;9.70;5.90;;;;;;;8.99;100.00;95334.97;5061829;28;20493;-76
2023/03/24 04:03:48;;;;;;;5.33;4.83;;;;;;;8.98;100.00;95333.44;5091588;28;20447;-76
2023/03/24 04:06:24;;;;;;;5.47;4.93;;;;;;;8.95;100.00;95334.13;5081224;28;20447;-75
2023/03/24 04:09:00;;;;;;;5.70;5.10;;;;;;;8.96;100.00;95333.03;5063596;28;20555;-76
2023/03/24 04:11:42;;;;;;;5.83;4.70;;;;;;;8.97;100.00;95329.28;5067725;28;20508;-76
2023/03/24 04:14:53;;;;;;;5.37;4.87;;;;;;;8.89;100.00;95319.66;5083563;28;20435;-76
2023/03/24 04:18:12;;;;;;;5.70;5.10;;;;;;;8.97;100.00;95323.25;5081648;28;20411;-76
2023/03/24 04:21:02;;;;;;;6.40;5.80;;;;;;;8.93;100.00;95322.38;5082525;28;20448;-76
2023/03/24 04:23:49;;;;;;;6.10;5.37;;;;;;;8.65;100.00;95294.22;5091080;28;20411;-76
2023/03/24 04:26:17;;;;;;;10.00;6.43;;;;;;;8.77;100.00;95323.13;5072867;28;20451;-75
2023/03/24 04:29:30;;;;;;;7.07;6.27;;;;;;;8.62;100.00;95294.91;5083086;28;21021;-76
2023/03/24 04:32:10;;;;;;;6.77;5.57;;;;;;;8.64;100.00;95303.22;5068226;28;20508;-76
2023/03/24 04:34:43;;;;;;;6.83;5.73;;;;;;;8.59;100.00;95293.72;5059455;28;20439;-76
2023/03/24 04:37:36;;;;;;;6.10;5.50;;;;;;;8.78;100.00;95324.66;5090726;28;20959;-75
2023/03/24 04:40:13;;;;;;;6.90;5.30;;;;;;;8.55;100.00;95300.00;5072677;28;20483;-75
2023/03/24 04:42:45;;;;;;;6.00;5.20;;;;;;;8.65;100.00;95312.66;5073222;28;20427;-75
2023/03/24 04:45:13;;;;;;;6.63;6.03;;;;;;;8.56;100.00;95293.63;5085080;28;20811;-76
2023/03/24 04:48:03;;;;;;;6.40;4.93;;;;;;;8.77;100.00;95307.31;5082581;28;20473;-75
2023/03/24 04:50:53;;;;;;;9.77;8.30;;;;;;;8.81;100.00;95297.66;5079494;28;20458;-76
2023/03/24 04:53:21;;;;;;;27.07;14.27;;;;;;;8.93;100.00;95314.47;5059967;28;20455;-76
2023/03/24 04:56:06;;;;;;;31.63;15.87;;;;;;;9.02;100.00;95307.16;5099507;28;20426;-75
2023/03/24 04:58:59;;;;;;;25.60;13.97;;;;;;;8.90;100.00;95300.09;5079646;28;20835;-75
2023/03/24 05:01:30;;;;;;;23.67;11.37;;;;;;;9.06;100.00;95318.56;5074276;28;21256;-75
2023/03/24 05:04:25;;;;;;;12.33;8.10;;;;;;;9.01;100.00;95310.91;5081288;28;20427;-76
2023/03/24 05:06:52;;;;;;;7.03;5.80;;;;;;;8.94;100.00;95303.59;5094244;28;20439;-75
2023/03/24 05:09:24;;;;;;;6.90;5.30;;;;;;;8.99;100.00;95318.41;5067966;28;20431;-76
2023/03/24 05:11:51;;;;;;;6.33;5.17;;;;;;;8.83;100.00;95286.78;5057953;28;20460;-76
2023/03/24 05:14:20;;;;;;;6.27;5.47;;;;;;;8.90;100.00;95297.47;5076684;28;20439;-75
2023/03/24 05:16:47;;;;;;;7.20;5.97;;;;;;;8.89;100.00;95293.31;5064128;28;20445;-76
2023/03/24 05:19:17;;;;;;;6.73;5.77;;;;;;;9.13;100.00;95314.22;5068873;28;20463;-75
2023/03/24 05:21:44;;;;;;;6.43;5.77;;;;;;;9.00;100.00;95293.56;5063448;28;20456;-76
2023/03/24 05:24:11;;;;;;;6.23;5.63;;;;;;;9.06;100.00;95295.59;5068820;28;20442;-76
2023/03/24 05:26:38;;;;;;;5.73;5.23;;;;;;;9.12;100.00;95280.28;5063030;28;20529;-76
2023/03/24 05:29:10;;;;;;;5.40;4.90;;;;;;;9.26;100.00;95306.97;5066791;28;20445;-76
2023/03/24 05:31:38;;;;;;;6.97;4.73;;;;;;;9.09;100.00;95296.81;5062944;28;20487;-76
2023/03/24 05:34:09;;;;;;;5.60;5.10;;;;;;;9.13;100.00;95302.91;5087113;28;20539;-75
2023/03/24 05:37:02;;;;;;;7.90;6.13;;;;;;;9.42;100.00;95317.50;5090014;28;20440;-76
2023/03/24 05:39:28;;;;;;;7.23;6.17;;;;;;;9.19;100.00;95290.97;5061017;28;20470;-76
2023/03/24 05:42:04;;;;;;;15.30;9.10;;;;;;;9.07;100.00;95283.94;5085390;28;20507;-76
2023/03/24 05:44:31;;;;;;;14.20;7.97;;;;;;;9.12;100.00;95296.13;5093958;28;20843;-76
2023/03/24 05:47:08;;;;;;;6.60;5.80;;;;;;;9.14;100.00;95305.22;5071667;28;20443;-76
2023/03/24 05:49:35;;;;;;;6.80;5.30;;;;;;;9.26;100.00;95317.53;5080066;28;20428;-75
2023/03/24 05:52:02;;;;;;;6.63;6.03;;;;;;;9.07;100.00;95294.47;5107576;28;20419;-76
2023/03/24 05:54:29;;;;;;;5.23;4.73;;;;;;;9.16;100.00;95315.41;5062938;28;20433;-76
2023/03/24 05:57:13;;;;;;;6.70;5.30;;;;;;;9.10;100.00;95311.50;5050558;28;20442;-75
2023/03/24 05:59:56;;;;;;;6.57;6.03;;;;;;;9.06;100.00;95306.13;5070249;28;20486;-76
2023/03/24 06:02:46;;;;;;;5.40;4.90;;;;;;;9.02;100.00;95291.34;5081854;28;20443;-75
2023/03/24 06:05:46;;;;;;;6.03;5.47;;;;;;;9.04;100.00;95292.53;5084337;28;20439;-76
2023/03/24 06:08:15;;;;;;;6.63;4.83;;;;;;;9.23;100.00;95296.38;5058745;28;20451;-76
2023/03/24 06:10:42;;;;;;;5.57;5.07;;;;;;;9.29;100.00;95316.84;5086982;28;21034;-76
2023/03/24 06:13:09;;;;;;;6.30;5.70;;;;;;;9.22;100.00;95294.84;5058594;28;20439;-75
2023/03/24 06:15:41;;;;;;;5.40;4.90;;;;;;;9.56;100.00;95312.53;5077378;28;20440;-76
2023/03/24 06:18:32;;;;;;;6.00;5.30;;;;;;;9.31;100.00;95285.63;5072772;28;20432;-76
2023/03/24 06:21:06;;;;;;;5.27;4.87;;;;;;;9.50;100.00;95300.75;5074901;28;20478;-76
2023/03/24 06:23:33;;;;;;;5.00;4.60;;;;;;;9.74;100.00;95310.28;5081541;28;20471;-76
2023/03/24 06:26:09;;;;;;;5.23;4.80;;;;;;;9.32;100.00;95252.84;5069429;28;20431;-76
2023/03/24 06:28:50;;;;;;;5.43;4.93;;;;;;;9.68;100.00;95323.00;5076473;28;20523;-76
2023/03/24 06:31:20;;;;;;;7.30;5.10;;;;;;;9.73;100.00;95319.31;5073148;28;20451;-74
2023/03/24 06:33:50;;;;;;;5.30;4.40;;;;;;;9.80;100.00;95319.47;5063362;28;20440;-74
2023/03/24 06:36:18;;;;;;;6.80;4.67;;;;;;;9.80;100.00;95322.09;5066467;28;20437;-74
2023/03/24 06:38:45;;;;;;;5.10;4.60;;;;;;;9.89;100.00;95330.59;5083697;28;21037;-74
2023/03/24 06:41:18;;;;;;;4.93;4.43;;;;;;;9.81;100.00;95315.72;5061662;28;20458;-74
2023/03/24 06:43:48;;;;;;;5.53;4.87;;;;;;;9.87;100.00;95324.13;5069095;28;20937;-74
2023/03/24 06:46:15;;;;;;;9.97;5.00;;;;;;;9.83;100.00;95334.63;5058222;28;20545;-74
2023/03/24 06:48:45;;;;;;;6.00;5.00;;;;;;;9.55;100.00;95283.88;5069332;28;20436;-74
2023/03/24 06:51:12;;;;;;;5.80;4.37;;;;;;;9.98;100.00;95347.00;5062824;28;20474;-74
2023/03/24 06:53:40;;;;;;;5.43;4.30;;;;;;;9.84;100.00;95319.53;5049675;28;20453;-74
2023/03/24 06:56:07;;;;;;;5.07;4.67;;;;;;;9.90;100.00;95320.81;5063146;28;20438;-74
2023/03/24 06:58:39;;;;;;;7.43;5.53;;;;;;;9.48;100.00;95260.72;5062527;28;20481;-75
2023/03/24 07:01:10;;;;;;;6.87;5.20;;;;;;;9.94;100.00;95332.97;5068790;28;20916;-76
2023/03/24 07:03:57;;;;;;;5.07;4.30;;;;;;;10.05;100.00;95341.88;5087777;28;20439;-75
2023/03/24 07:06:29;;;;;;;6.70;4.90;;;;;;;9.96;100.00;95324.69;5093864;28;20446;-75
2023/03/24 07:09:05;;;;;;;5.07;4.57;;;;;;;10.00;100.00;95313.09;5070787;28;20434;-76
2023/03/24 07:11:31;;;;;;;4.67;4.10;;;;;;;9.83;100.00;95320.66;5085732;28;20451;-75
2023/03/24 07:14:01;;;;;;;5.10;4.70;;;;;;;9.91;100.00;95338.94;5085472;28;20467;-75
2023/03/24 07:16:29;;;;;;;6.90;4.93;;;;;;;9.87;100.00;95316.19;5089036;28;20439;-76
2023/03/24 07:19:15;;;;;;;12.30;5.27;;;;;;;9.58;100.00;95285.81;5101017;28;20931;-75
2023/03/24 07:21:48;;;;;;;5.23;4.83;;;;;;;9.81;100.00;95320.22;5071403;28;20558;-76
2023/03/24 07:24:19;;;;;;;5.20;4.77;;;;;;;10.06;100.00;95338.13;5068205;28;20475;-76
2023/03/24 07:26:56;;;;;;;5.30;4.80;;;;;;;9.95;100.00;95334.50;5063688;28;20431;-76
2023/03/24 07:29:23;;;;;;;5.23;4.73;;;;;;;9.99;100.00;95353.03;5062392;28;20453;-76
2023/03/24 07:32:12;;;;;;;6.67;5.53;;;;;;;9.99;100.00;95363.59;5074155;28;20447;-76
2023/03/24 07:34:38;;;;;;;7.67;6.97;;;;;;;9.98;100.00;95352.28;5082622;28;20432;-76
2023/03/24 07:37:05;;;;;;;8.50;6.83;;;;;;;10.15;100.00;95351.13;5065863;28;20813;-76
2023/03/24 07:39:32;;;;;;;5.53;5.00;;;;;;;10.14;100.00;95344.28;5070358;28;20490;-75
2023/03/24 07:41:59;;;;;;;5.07;4.67;;;;;;;10.11;100.00;95333.66;5066079;28;20436;-76
2023/03/24 07:44:49;;;;;;;7.03;4.93;;;;;;;10.38;100.00;95364.41;5077609;28;20492;-76
2023/03/24 07:47:17;;;;;;;5.37;4.87;;;;;;;10.45;100.00;95350.59;5085839;28;20435;-76
2023/03/24 07:49:47;;;;;;;4.33;4.00;;;;;;;10.66;100.00;95367.59;5079407;28;20465;-75
2023/03/24 07:52:14;;;;;;;5.33;4.83;;;;;;;10.71;100.00;95368.44;5078261;28;20455;-76
2023/03/24 07:54:43;;;;;;;4.67;4.23;;;;;;;10.80;100.00;95392.78;5064077;28;20504;-76
2023/03/24 07:57:24;;;;;;;8.80;5.70;;;;;;;10.52;100.00;95351.47;5060114;28;21122;-76
2023/03/24 07:59:51;;;;;;;6.17;5.60;;;;;;;10.78;100.00;95387.06;5065224;28;20512;-76
2023/03/24 08:02:26;;;;;;;5.87;5.37;;;;;;;10.66;100.00;95375.53;5076622;28;20472;-76
2023/03/24 08:05:17;;;;;;;5.50;5.03;;;;;;;10.79;100.00;95392.00;5082330;28;20435;-76
2023/03/24 08:08:13;;;;;;;4.27;3.93;;;;;;;10.72;100.00;95377.91;5082332;28;20443;-76
2023/03/24 08:10:39;;;;;;;5.80;5.10;;;;;;;10.86;100.00;95397.44;5078517;28;20546;-76
2023/03/24 08:13:06;;;;;;;5.00;4.33;;;;;;;10.77;100.00;95388.19;5088465;28;20534;-76
2023/03/24 08:15:33;;;;;;;9.00;4.73;;;;;;;10.80;100.00;95388.25;5078328;28;20510;-76
2023/03/24 08:17:59;;;;;;;4.67;4.20;;;;;;;10.57;100.00;95368.94;5081487;28;20430;-76
2023/03/24 08:20:28;;;;;;;7.07;5.80;;;;;;;10.77;100.00;95417.28;5089244;28;20473;-76
2023/03/24 08:22:55;;;;;;;9.20;6.67;;;;;;;10.62;100.00;95406.44;5089445;28;20447;-76
2023/03/24 08:25:24;;;;;;;5.30;4.80;;;;;;;10.66;100.00;95412.53;5095575;28;20419;-75
2023/03/24 08:27:51;;;;;;;5.83;5.23;;;;;;;10.68;100.00;95414.81;5068167;28;20435;-76
2023/03/24 08:30:20;;;;;;;6.40;4.47;;;;;;;10.53;100.00;95381.31;5095362;28;20836;-76
2023/03/24 08:32:50;;;;;;;6.40;5.37;;;;;;;10.74;100.00;95410.81;5067140;28;20448;-76
2023/03/24 08:35:22;;;;;;;4.80;4.03;;;;;;;10.61;100.00;95377.69;5068394;28;20937;-75
2023/03/24 08:37:50;;;;;;;6.00;3.97;;;;;;;10.56;100.00;95370.84;5063624;28;20435;-75
2023/03/24 08:40:22;;;;;;;5.00;4.50;;;;;;;10.88;100.00;95407.66;5085721;28;20469;-76
2023/03/24 08:42:54;;;;;;;5.50;4.97;;;;;;;10.92;100.00;95411.88;5090537;28;20885;-76
2023/03/24 08:45:23;;;;;;;5.43;4.93;;;;;;;10.95;100.00;95411.22;5070239;28;20500;-76
2023/03/24 08:47:51;;;;;;;4.70;3.97;;;;;;;10.80;100.00;95379.53;5082017;28;20472;-76
2023/03/24 08:50:26;;;;;;;5.00;4.60;;;;;;;10.89;100.00;95393.31;5083102;28;20504;-75
2023/03/24 08:52:56;;;;;;;4.63;4.23;;;;;;;10.82;100.00;95380.00;5103749;28;20422;-76
2023/03/24 08:55:24;;;;;;;3.60;3.30;;;;;;;10.87;100.00;95392.91;5094652;28;20434;-75
2023/03/24 08:57:51;;;;;;;4.70;3.90;;;;;;;10.80;100.00;95380.31;5092525;28;20474;-76
2023/03/24 09:00:19;;;;;;;4.23;3.67;;;;;;;11.04;100.00;95418.13;5076225;28;20980;-76
2023/03/24 09:02:48;;;;;;;10.90;5.10;;;;;;;10.89;100.00;95390.69;5076590;28;20797;-76
2023/03/24 09:05:17;;;;;;;5.00;4.60;;;;;;;11.03;100.00;95419.25;5088367;28;20895;-76
2023/03/24 09:07:52;;;;;;;5.17;4.07;;;;;;;11.03;100.00;95425.31;5076393;28;20439;-76
2023/03/24 09:10:21;;;;;;;5.80;4.30;;;;;;;11.05;100.00;95423.06;5086562;28;20459;-75
2023/03/24 09:12:48;;;;;;;6.23;4.10;;;;;;;10.68;100.00;95363.84;5094588;28;20451;-76
2023/03/24 09:15:15;;;;;;;4.60;3.80;;;;;;;11.07;100.00;95397.03;5094380;28;20435;-76
2023/03/24 09:17:41;;;;;;;7.30;4.83;;;;;;;10.80;100.00;95343.28;5089897;28;20941;-76
2023/03/24 09:20:12;;;;;;;4.73;4.00;;;;;;;11.44;100.00;95436.22;5067311;28;20842;-76
2023/03/24 09:22:40;;;;;;;13.80;8.40;;;;;;;11.30;100.00;95414.81;5062821;28;20435;-76
2023/03/24 09:25:11;;;;;;;6.87;4.47;;;;;;;11.32;100.00;95426.56;5067578;28;20534;-76
2023/03/24 09:27:38;;;;;;;4.97;4.37;;;;;;;11.14;100.00;95409.63;5094544;28;20462;-76
2023/03/24 09:30:06;;;;;;;5.77;3.30;;;;;;;11.21;100.00;95415.78;5083436;28;20488;-76
2023/03/24 09:32:33;;;;;;;6.57;3.40;;;;;;;11.06;100.00;95384.16;5064123;28;20449;-75
2023/03/24 09:35:00;;;;;;;3.97;3.40;;;;;;;11.19;100.00;95406.69;5094240;28;20416;-76
2023/03/24 09:37:31;;;;;;;3.80;3.50;;;;;;;11.29;100.00;95429.91;5049896;28;20971;-76
2023/03/24 09:40:00;;;;;;;3.70;3.40;;;;;;;11.11;100.00;95402.41;5093968;28;21069;-76
2023/03/24 09:42:33;;;;;;;4.50;4.10;;;;;;;11.34;100.00;95434.91;5088392;28;20424;-76
2023/03/24 09:45:06;;;;;;;4.63;4.23;;;;;;;11.30;100.00;95435.97;5071499;28;20451;-76
2023/03/24 09:47:45;;;;;;;4.63;3.73;;;;;;;11.19;100.00;95422.56;5094138;28;20788;-76
2023/03/24 09:50:21;;;;;;;4.57;4.17;;;;;;;11.22;100.00;95424.53;5107379;28;20444;-76
2023/03/24 09:52:54;;;;;;;4.80;4.03;;;;;;;11.00;100.00;95402.22;5075844;28;20435;-76
2023/03/24 09:55:26;;;;;;;5.07;4.57;;;;;;;11.15;100.00;95419.84;5066669;28;20424;-76
2023/03/24 09:58:00;;;;;;;3.87;3.57;;;;;;;10.85;100.00;95387.97;5080642;28;20460;-76
2023/03/24 10:00:30;;;;;;;5.37;4.90;;;;;;;10.80;100.00;95384.84;5051407;28;20557;-76
2023/03/24 10:03:22;;;;;;;3.80;3.50;;;;;;;10.97;100.00;95424.09;5089151;28;20913;-76
2023/03/24 10:05:58;;;;;;;5.90;5.40;;;;;;;10.97;100.00;95426.72;5083013;28;20436;-76
2023/03/24 10:08:34;;;;;;;4.23;3.90;;;;;;;10.93;100.00;95426.63;5093733;28;20415;-76
2023/03/24 10:11:33;;;;;;;9.50;7.37;;;;;;;10.87;100.00;95412.19;5093496;28;20466;-76
2023/03/24 10:14:16;;;;;;;6.47;5.80;;;;;;;10.73;100.00;95382.84;5093717;28;20455;-76
2023/03/24 10:17:04;;;;;;;3.83;3.37;;;;;;;10.60;100.00;95339.16;5083971;28;20510;-76
2023/03/24 10:20:10;;;;;;;4.37;4.00;;;;;;;10.79;100.00;95380.66;5063321;28;20451;-76
2023/03/24 10:23:07;;;;;;;4.20;3.90;;;;;;;10.91;100.00;95409.59;5068535;28;20525;-76
2023/03/24 10:25:51;;;;;;;5.47;4.97;;;;;;;10.76;100.00;95365.50;5078641;28;20455;-76
2023/03/24 10:28:34;;;;;;;4.83;4.43;;;;;;;10.80;100.00;95374.25;5082292;28;20424;-76
2023/03/24 10:31:09;;;;;;;6.60;5.83;;;;;;;10.84;100.00;95364.53;5069677;28;20483;-76
2023/03/24 10:33:42;;;;;;;9.57;8.67;;;;;;;10.99;100.00;95381.41;5064594;28;20960;-76
2023/03/24 10:36:17;;;;;;;5.83;5.07;;;;;;;11.14;100.00;95391.88;5093187;28;20919;-76
2023/03/24 10:38:44;;;;;;;4.90;4.60;;;;;;;11.04;100.00;95383.75;5062603;28;20439;-76
2023/03/24 10:41:20;;;;;;;3.80;3.40;;;;;;;11.13;100.00;95405.47;5057574;28;20473;-76
2023/03/24 10:43:49;;;;;;;4.43;4.00;;;;;;;11.07;100.00;95383.03;5092923;28;20419;-76
2023/03/24 10:46:19;;;;;;;4.13;3.83;;;;;;;11.27;100.00;95408.34;5063791;28;20469;-76
2023/03/24 10:48:49;;;;;;;4.27;3.77;;;;;;;11.34;100.00;95395.22;5087224;28;20434;-76
2023/03/24 10:51:33;;;;;;;4.90;4.13;;;;;;;11.30;100.00;95391.00;5086514;28;20509;-76
2023/03/24 10:54:12;;;;;;;3.83;3.53;;;;;;;11.42;100.00;95412.75;5066024;28;20434;-76
2023/03/24 10:57:14;;;;;;;4.17;3.73;;;;;;;11.62;100.00;95404.72;5092644;28;20411;-76
2023/03/24 10:59:55;;;;;;;5.03;3.00;;;;;;;11.77;100.00;95409.16;5092712;28;20505;-76
2023/03/24 11:02:25;;;;;;;3.40;3.10;;;;;;;11.91;100.00;95424.50;5079586;28;20419;-76
2023/03/24 11:05:01;;;;;;;3.37;3.00;;;;;;;11.83;100.00;95420.97;5079831;28;20778;-75
2023/03/24 11:07:37;;;;;;;3.17;2.90;;;;;;;11.97;100.00;95418.53;5080146;28;20533;-76
2023/03/24 11:10:23;;;;;;;2.70;2.40;;;;;;;12.14;100.00;95419.91;5087870;28;20439;-76
2023/03/24 11:12:52;;;;;;;6.53;2.80;;;;;;;12.21;100.00;95425.31;5084494;28;20439;-76
2023/03/24 11:15:20;;;;;;;3.60;3.30;;;;;;;12.27;100.00;95426.50;5079499;28;20458;-76
2023/03/24 11:18:05;;;;;;;2.23;2.13;;;;;;;12.15;100.00;95410.81;5080077;28;20438;-76
2023/03/24 11:20:57;;;;;;;4.07;2.80;;;;;;;11.99;100.00;95389.03;5063995;28;20539;-76
2023/03/24 11:23:41;;;;;;;3.37;2.87;;;;;;;12.16;100.00;95404.44;5079068;28;20418;-76
2023/03/24 11:26:18;;;;;;;3.10;2.90;;;;;;;12.24;100.00;95416.63;5105842;28;20447;-76
2023/03/24 11:28:51;;;;;;;2.40;1.97;;;;;;;12.26;100.00;95414.38;5065407;28;20478;-76
2023/03/24 11:31:38;;;;;;;2.10;1.90;;;;;;;12.16;100.00;95420.31;5077470;28;20470;-76
2023/03/24 11:34:23;;;;;;;2.50;2.30;;;;;;;12.03;100.00;95411.06;5092124;28;20416;-76
2023/03/24 11:36:55;;;;;;;2.10;1.90;;;;;;;12.10;100.00;95411.16;5055289;28;20443;-76
2023/03/24 11:39:27;;;;;;;2.33;2.23;;;;;;;11.61;100.00;95345.72;5090624;28;20469;-76
2023/03/24 11:42:10;;;;;;;3.57;2.77;;;;;;;12.12;100.00;95420.25;5092047;28;20792;-76
2023/03/24 11:44:37;;;;;;;3.37;3.17;;;;;;;12.24;100.00;95413.97;5067190;28;20421;-76
2023/03/24 11:47:10;;;;;;;2.40;2.20;;;;;;;12.17;100.00;95418.44;5062230;28;20431;-76
2023/03/24 11:49:56;;;;;;;2.37;1.60;;;;;;;12.13;100.00;95421.03;5084539;28;20431;-76
2023/03/24 11:52:30;;;;;;;1.77;1.60;;;;;;;12.09;100.00;95399.78;5089221;28;20403;-76
2023/03/24 11:54:57;;;;;;;1.90;1.80;;;;;;;11.89;100.00;95357.88;5087957;28;20791;-76
2023/03/24 11:57:50;;;;;;;4.10;1.57;;;;;;;11.66;100.00;95334.84;5081100;28;20428;-76
2023/03/24 12:00:24;;;;;;;2.03;1.50;;;;;;;12.13;100.00;95397.94;5095814;28;20529;-76
2023/03/24 12:03:18;;;;;;;2.60;2.40;;;;;;;12.20;100.00;95386.69;5087065;28;20499;-76
2023/03/24 12:06:02;;;;;;;1.57;1.47;;;;;;;12.33;100.00;95387.97;5083998;28;20447;-76